createdAt,value
2018-05-03T00:02:05.266Z,11.70
2018-05-03T00:04:32.743Z,11.70
2018-05-03T00:07:00.144Z,11.70
2018-05-03T00:09:27.579Z,11.70
2018-05-03T00:11:55.020Z,11.70
2018-05-03T00:14:22.467Z,11.70
2018-05-03T00:16:49.908Z,11.60
2018-05-03T00:19:17.495Z,11.60
2018-05-03T00:21:44.947Z,11.60
2018-05-03T00:24:12.384Z,11.60
2018-05-03T00:26:39.828Z,11.60
2018-05-03T00:29:07.263Z,11.60
2018-05-03T00:31:34.731Z,11.60
2018-05-03T00:34:02.166Z,11.60
2018-05-03T00:36:29.605Z,11.60
2018-05-03T00:38:57.046Z,11.60
2018-05-03T00:41:24.558Z,11.60
2018-05-03T00:43:52.009Z,11.60
2018-05-03T00:46:19.449Z,11.50
2018-05-03T00:48:46.907Z,11.50
2018-05-03T00:51:14.403Z,11.50
2018-05-03T00:53:41.847Z,11.60
2018-05-03T00:56:09.300Z,11.60
2018-05-03T00:58:36.731Z,11.60
2018-05-03T01:01:04.184Z,11.60
2018-05-03T01:03:31.626Z,11.60
2018-05-03T01:05:59.055Z,11.60
2018-05-03T01:08:26.804Z,11.60
2018-05-03T01:10:54.236Z,11.60
2018-05-03T01:13:22.046Z,11.60
2018-05-03T01:15:49.473Z,11.60
2018-05-03T01:18:17.032Z,11.70
2018-05-03T01:20:44.480Z,11.70
2018-05-03T01:23:11.912Z,11.80
2018-05-03T01:25:39.354Z,11.80
2018-05-03T01:28:06.807Z,11.80
2018-05-03T01:30:37.656Z,11.80
2018-05-03T01:33:05.104Z,11.80
2018-05-03T01:35:44.225Z,11.80
2018-05-03T01:38:11.667Z,11.90
2018-05-03T01:40:39.101Z,11.90
2018-05-03T01:43:06.625Z,11.90
2018-05-03T01:45:34.103Z,11.90
2018-05-03T01:48:01.543Z,11.90
2018-05-03T01:50:29.000Z,11.90
2018-05-03T01:52:56.432Z,11.90
2018-05-03T01:55:23.868Z,11.80
2018-05-03T01:57:51.319Z,11.90
2018-05-03T02:00:18.760Z,11.90
2018-05-03T02:02:46.208Z,11.90
2018-05-03T02:05:13.653Z,11.90
2018-05-03T02:07:41.114Z,11.90
2018-05-03T02:10:08.548Z,11.90
2018-05-03T02:12:35.985Z,11.80
2018-05-03T02:15:03.434Z,11.80
2018-05-03T02:17:30.872Z,11.80
2018-05-03T02:19:58.303Z,11.80
2018-05-03T02:22:26.027Z,11.80
2018-05-03T02:24:53.464Z,11.80
2018-05-03T02:27:20.908Z,11.80
2018-05-03T02:29:48.344Z,11.80
2018-05-03T02:32:15.783Z,11.80
2018-05-03T02:34:43.248Z,11.80
2018-05-03T02:37:10.780Z,11.80
2018-05-03T02:39:38.335Z,11.80
2018-05-03T02:42:05.767Z,11.70
2018-05-03T02:44:33.217Z,11.70
2018-05-03T02:47:00.675Z,11.70
2018-05-03T02:49:29.303Z,11.70
2018-05-03T02:51:56.755Z,11.60
2018-05-03T02:54:24.240Z,11.70
2018-05-03T02:56:51.682Z,11.60
2018-05-03T02:59:30.868Z,11.60
2018-05-03T03:02:04.009Z,11.50
2018-05-03T03:04:48.943Z,11.50
2018-05-03T03:10:48.474Z,11.40
2018-05-03T03:13:47.389Z,11.40
2018-05-03T03:16:32.248Z,11.40
2018-05-03T03:19:17.336Z,11.30
2018-05-03T03:22:13.007Z,11.30
2018-05-03T03:24:48.049Z,11.30
2018-05-03T03:27:32.899Z,11.20
2018-05-03T03:30:12.110Z,11.20
2018-05-03T03:32:51.575Z,11.20
2018-05-03T03:38:40.919Z,11.20
2018-05-03T03:41:20.080Z,11.20
2018-05-03T03:44:00.136Z,11.10
2018-05-03T03:46:27.572Z,11.10
2018-05-03T03:48:55.224Z,11.10
2018-05-03T03:51:22.676Z,11.20
2018-05-03T03:53:50.108Z,11.10
2018-05-03T03:56:17.565Z,11.20
2018-05-03T03:58:44.995Z,11.20
2018-05-03T04:01:13.195Z,11.20
2018-05-03T04:03:40.650Z,11.20
2018-05-03T04:06:08.089Z,11.30
2018-05-03T04:08:35.540Z,11.30
2018-05-03T04:11:02.979Z,11.40
2018-05-03T04:13:30.514Z,11.40
2018-05-03T04:15:57.962Z,11.50
2018-05-03T04:18:37.119Z,11.50
2018-05-03T04:21:16.403Z,11.50
2018-05-03T04:24:11.323Z,11.60
2018-05-03T04:26:38.939Z,11.50
2018-05-03T04:29:06.411Z,11.60
2018-05-03T04:31:33.865Z,11.60
2018-05-03T04:34:01.303Z,11.60
2018-05-03T04:36:28.746Z,11.60
2018-05-03T04:38:56.196Z,11.60
2018-05-03T04:41:23.635Z,11.50
2018-05-03T04:43:51.070Z,11.50
2018-05-03T04:46:18.633Z,11.60
2018-05-03T04:48:46.075Z,11.60
2018-05-03T04:51:13.524Z,11.70
2018-05-03T04:53:40.969Z,11.80
2018-05-03T04:56:08.526Z,11.80
2018-05-03T04:58:35.979Z,11.90
2018-05-03T05:01:03.411Z,12.00
2018-05-03T05:03:30.867Z,12.00
2018-05-03T05:05:58.303Z,12.10
2018-05-03T05:08:25.782Z,12.10
2018-05-03T05:10:53.228Z,12.20
2018-05-03T05:13:20.667Z,12.20
2018-05-03T05:15:48.117Z,12.30
2018-05-03T05:18:15.560Z,12.30
2018-05-03T05:20:42.992Z,12.40
2018-05-03T05:23:10.444Z,12.50
2018-05-03T05:25:37.877Z,12.50
2018-05-03T05:28:05.560Z,12.60
2018-05-03T05:30:33.347Z,12.70
2018-05-03T05:33:00.820Z,12.80
2018-05-03T05:35:28.354Z,12.90
2018-05-03T05:37:56.298Z,12.90
2018-05-03T05:40:24.403Z,13.00
2018-05-03T05:42:52.375Z,13.00
2018-05-03T05:45:20.304Z,13.10
2018-05-03T05:47:48.329Z,13.10
2018-05-03T05:50:15.934Z,13.20
2018-05-03T05:52:43.376Z,13.20
2018-05-03T05:55:10.815Z,13.20
2018-05-03T05:57:38.265Z,13.20
2018-05-03T06:00:05.751Z,13.20
2018-05-03T06:02:33.190Z,13.20
2018-05-03T06:05:01.105Z,13.30
2018-05-03T06:07:28.537Z,13.30
2018-05-03T06:09:56.104Z,13.40
2018-05-03T06:12:23.518Z,13.40
2018-05-03T06:14:51.125Z,13.50
2018-05-03T06:17:18.566Z,13.50
2018-05-03T06:19:46.428Z,13.50
2018-05-03T06:22:13.872Z,13.50
2018-05-03T06:24:42.494Z,13.60
2018-05-03T06:27:09.935Z,13.50
2018-05-03T06:29:37.372Z,13.60
2018-05-03T06:32:04.823Z,13.70
2018-05-03T06:34:32.279Z,13.80
2018-05-03T06:37:00.128Z,13.80
2018-05-03T06:39:27.795Z,13.90
2018-05-03T06:41:55.239Z,14.00
2018-05-03T06:44:22.800Z,14.20
2018-05-03T06:46:50.260Z,14.20
2018-05-03T06:49:18.305Z,14.30
2018-05-03T06:51:46.095Z,14.40
2018-05-03T06:54:13.527Z,14.40
2018-05-03T06:56:41.460Z,14.50
2018-05-03T06:59:09.414Z,14.50
2018-05-03T07:01:36.840Z,14.60
2018-05-03T07:04:04.700Z,14.60
2018-05-03T07:06:32.120Z,14.70
2018-05-03T07:08:59.565Z,14.80
2018-05-03T07:11:27.016Z,14.80
2018-05-03T07:13:54.545Z,14.80
2018-05-03T07:16:22.476Z,14.90
2018-05-03T07:18:49.911Z,15.00
2018-05-03T07:21:17.377Z,15.00
2018-05-03T07:23:44.886Z,15.10
2018-05-03T07:26:12.646Z,15.10
2018-05-03T07:28:40.264Z,15.10
2018-05-03T07:31:07.999Z,15.10
2018-05-03T07:33:35.441Z,15.20
2018-05-03T07:36:02.888Z,15.30
2018-05-03T07:38:30.350Z,15.30
2018-05-03T07:40:57.915Z,15.30
2018-05-03T07:43:25.318Z,15.20
2018-05-03T07:45:53.233Z,15.30
2018-05-03T07:48:20.660Z,15.40
2018-05-03T07:50:48.524Z,15.50
2018-05-03T07:53:16.752Z,15.70
2018-05-03T07:55:44.262Z,15.60
2018-05-03T07:58:11.895Z,15.70
2018-05-03T08:00:39.348Z,15.80
2018-05-03T08:03:06.834Z,15.90
2018-05-03T08:05:34.477Z,15.90
2018-05-03T08:08:01.915Z,16.00
2018-05-03T08:10:30.133Z,16.00
2018-05-03T08:12:57.760Z,16.00
2018-05-03T08:15:25.206Z,16.00
2018-05-03T08:17:52.664Z,16.00
2018-05-03T08:20:20.214Z,16.00
2018-05-03T08:22:48.433Z,16.00
2018-05-03T08:25:15.880Z,16.00
2018-05-03T08:27:43.328Z,16.10
2018-05-03T08:30:10.808Z,16.10
2018-05-03T08:32:38.652Z,16.20
2018-05-03T08:35:06.512Z,16.30
2018-05-03T08:37:34.361Z,16.50
2018-05-03T08:40:02.216Z,16.70
2018-05-03T08:42:29.753Z,16.80
2018-05-03T08:44:57.235Z,17.00
2018-05-03T08:47:24.832Z,17.10
2018-05-03T08:49:52.509Z,17.20
2018-05-03T08:52:20.333Z,17.20
2018-05-03T08:54:48.208Z,17.40
2018-05-03T08:57:15.654Z,17.50
2018-05-03T08:59:43.335Z,17.50
2018-05-03T09:02:10.763Z,17.50
2018-05-03T09:04:38.208Z,17.40
2018-05-03T09:07:06.417Z,17.40
2018-05-03T09:09:34.207Z,17.40
2018-05-03T09:12:01.632Z,17.50
2018-05-03T09:14:29.504Z,17.60
2018-05-03T09:16:56.962Z,17.70
2018-05-03T09:19:24.397Z,17.80
2018-05-03T09:21:52.171Z,17.90
2018-05-03T09:24:19.621Z,18.10
2018-05-03T09:26:47.660Z,18.20
2018-05-03T09:29:15.143Z,18.30
2018-05-03T09:31:42.596Z,18.50
2018-05-03T09:34:10.067Z,18.70
2018-05-03T09:36:37.508Z,19.00
2018-05-03T09:39:06.008Z,19.50
2018-05-03T09:41:33.437Z,19.80
2018-05-03T09:44:00.932Z,20.30
2018-05-03T09:46:28.603Z,20.90
2018-05-03T09:48:56.059Z,21.40
2018-05-03T09:51:23.916Z,21.70
2018-05-03T09:53:51.386Z,22.00
2018-05-03T09:56:19.053Z,23.10
2018-05-03T09:58:46.799Z,24.30
2018-05-03T10:01:14.435Z,25.40
2018-05-03T10:03:42.105Z,26.10
2018-05-03T10:06:09.543Z,26.80
2018-05-03T10:08:36.989Z,27.30
2018-05-03T10:11:04.627Z,27.60
2018-05-03T10:13:32.072Z,28.10
2018-05-03T10:15:59.532Z,28.50
2018-05-03T10:18:26.976Z,28.60
2018-05-03T10:20:54.679Z,28.40
2018-05-03T10:23:22.560Z,28.70
2018-05-03T10:25:50.016Z,29.00
2018-05-03T10:28:17.455Z,29.20
2018-05-03T10:30:45.343Z,29.60
2018-05-03T10:33:12.834Z,29.80
2018-05-03T10:35:40.525Z,29.00
2018-05-03T10:38:07.967Z,27.80
2018-05-03T10:40:35.429Z,26.70
2018-05-03T10:43:03.538Z,25.20
2018-05-03T10:45:30.996Z,24.30
2018-05-03T10:47:58.435Z,24.10
2018-05-03T10:50:26.237Z,24.80
2018-05-03T10:52:53.700Z,26.20
2018-05-03T10:55:21.140Z,27.30
2018-05-03T10:57:48.578Z,28.10
2018-05-03T11:00:16.020Z,29.20
2018-05-03T11:02:43.487Z,30.10
2018-05-03T11:05:11.523Z,30.80
2018-05-03T11:07:39.229Z,31.10
2018-05-03T11:10:06.782Z,31.30
2018-05-03T11:12:34.426Z,30.30
2018-05-03T11:15:02.071Z,28.70
2018-05-03T11:17:29.516Z,27.30
2018-05-03T11:19:57.243Z,26.80
2018-05-03T11:22:25.134Z,27.00
2018-05-03T11:24:53.626Z,28.40
2018-05-03T11:27:21.071Z,28.30
2018-05-03T11:29:48.526Z,28.80
2018-05-03T11:32:16.417Z,29.30
2018-05-03T11:34:43.863Z,29.40
2018-05-03T11:37:11.799Z,29.60
2018-05-03T11:39:39.393Z,29.60
2018-05-03T11:42:06.935Z,29.20
2018-05-03T11:44:35.448Z,27.70
2018-05-03T11:47:02.888Z,27.60
2018-05-03T11:49:30.700Z,27.20
2018-05-03T11:51:58.167Z,27.10
2018-05-03T11:54:25.597Z,26.70
2018-05-03T11:56:53.057Z,26.20
2018-05-03T11:59:20.615Z,26.10
2018-05-03T12:01:48.376Z,27.00
2018-05-03T12:04:15.818Z,28.20
2018-05-03T12:06:43.793Z,28.90
2018-05-03T12:09:11.286Z,29.10
2018-05-03T12:11:38.743Z,29.20
2018-05-03T12:14:06.211Z,29.30
2018-05-03T12:16:33.658Z,29.60
2018-05-03T12:19:01.093Z,29.70
2018-05-03T12:21:28.578Z,30.40
2018-05-03T12:23:56.154Z,30.90
2018-05-03T12:26:23.592Z,31.10
2018-05-03T12:28:51.046Z,31.30
2018-05-03T12:31:18.668Z,31.40
2018-05-03T12:33:46.107Z,30.90
2018-05-03T12:36:13.658Z,30.00
2018-05-03T12:38:41.196Z,28.90
2018-05-03T12:41:08.627Z,27.90
2018-05-03T12:43:36.073Z,27.00
2018-05-03T12:46:03.511Z,26.40
2018-05-03T12:48:30.952Z,26.70
2018-05-03T12:50:58.437Z,27.40
2018-05-03T12:53:25.912Z,27.80
2018-05-03T12:55:53.425Z,28.30
2018-05-03T12:58:20.881Z,29.10
2018-05-03T13:00:48.367Z,29.80
2018-05-03T13:03:15.779Z,31.00
2018-05-03T13:05:43.227Z,31.60
2018-05-03T13:08:10.659Z,31.30
2018-05-03T13:10:38.103Z,31.10
2018-05-03T13:13:05.562Z,30.70
2018-05-03T13:15:33.027Z,30.30
2018-05-03T13:18:00.571Z,29.40
2018-05-03T13:20:28.367Z,28.90
2018-05-03T13:22:55.815Z,29.10
2018-05-03T13:25:23.287Z,29.70
2018-05-03T13:27:50.732Z,30.40
2018-05-03T13:30:19.468Z,31.00
2018-05-03T13:32:46.940Z,31.00
2018-05-03T13:35:14.554Z,30.70
2018-05-03T13:37:41.974Z,30.00
2018-05-03T13:40:09.419Z,29.30
2018-05-03T13:42:36.882Z,28.70
2018-05-03T13:45:04.333Z,28.10
2018-05-03T13:47:31.868Z,28.50
2018-05-03T13:49:59.733Z,29.10
2018-05-03T13:52:27.176Z,30.00
2018-05-03T13:54:54.976Z,30.40
2018-05-03T13:57:22.447Z,31.10
2018-05-03T13:59:50.080Z,31.30
2018-05-03T14:02:17.771Z,30.50
2018-05-03T14:04:45.643Z,29.60
2018-05-03T14:07:13.143Z,28.70
2018-05-03T14:09:40.564Z,28.00
2018-05-03T14:12:07.995Z,27.80
2018-05-03T14:14:35.435Z,27.40
2018-05-03T14:17:02.888Z,27.20
2018-05-03T14:19:30.323Z,27.70
2018-05-03T14:21:57.774Z,28.30
2018-05-03T14:24:25.328Z,28.10
2018-05-03T14:26:52.881Z,27.60
2018-05-03T14:29:20.668Z,27.00
2018-05-03T14:31:48.102Z,26.90
2018-05-03T14:34:15.681Z,27.20
2018-05-03T14:36:43.127Z,27.20
2018-05-03T14:39:10.564Z,26.90
2018-05-03T14:41:38.008Z,26.50
2018-05-03T14:44:05.448Z,26.00
2018-05-03T14:46:32.891Z,25.50
2018-05-03T14:49:00.332Z,25.10
2018-05-03T14:51:27.832Z,25.00
2018-05-03T14:53:55.289Z,25.40
2018-05-03T14:56:22.742Z,25.90
2018-05-03T14:58:50.190Z,26.20
2018-05-03T15:01:17.739Z,26.20
2018-05-03T15:03:45.188Z,26.50
2018-05-03T15:06:12.995Z,27.30
2018-05-03T15:08:40.431Z,28.10
2018-05-03T15:11:07.931Z,28.70
2018-05-03T15:13:35.391Z,28.90
2018-05-03T15:16:02.889Z,28.80
2018-05-03T15:18:30.485Z,28.20
2018-05-03T15:20:57.843Z,27.30
2018-05-03T15:23:25.300Z,26.50
2018-05-03T15:25:53.100Z,25.80
2018-05-03T15:28:20.546Z,25.60
2018-05-03T15:30:48.120Z,25.40
2018-05-03T15:33:15.558Z,25.10
2018-05-03T15:35:43.356Z,24.70
2018-05-03T15:38:10.799Z,24.30
2018-05-03T15:40:38.248Z,23.80
2018-05-03T15:43:05.700Z,23.50
2018-05-03T15:45:33.287Z,23.40
2018-05-03T15:48:01.035Z,23.10
2018-05-03T15:50:28.619Z,23.00
2018-05-03T15:52:56.391Z,22.90
2018-05-03T15:55:23.845Z,22.90
2018-05-03T15:57:51.326Z,22.80
2018-05-03T16:00:18.787Z,22.60
2018-05-03T16:02:46.227Z,22.40
2018-05-03T16:05:13.727Z,22.30
2018-05-03T16:07:41.191Z,22.20
2018-05-03T16:10:08.635Z,22.10
2018-05-03T16:12:36.103Z,21.90
2018-05-03T16:15:03.551Z,21.80
2018-05-03T16:17:31.028Z,21.70
2018-05-03T16:19:58.888Z,21.80
2018-05-03T16:22:26.369Z,21.80
2018-05-03T16:24:54.824Z,21.90
2018-05-03T16:27:22.268Z,21.90
2018-05-03T16:29:49.704Z,21.80
2018-05-03T16:32:17.920Z,21.50
2018-05-03T16:34:45.483Z,21.40
2018-05-03T16:37:12.937Z,21.40
2018-05-03T16:39:40.640Z,21.30
2018-05-03T16:42:08.074Z,21.20
2018-05-03T16:44:35.519Z,21.10
2018-05-03T16:47:02.968Z,21.10
2018-05-03T16:49:30.405Z,21.10
2018-05-03T16:51:57.852Z,21.00
2018-05-03T16:54:25.333Z,21.00
2018-05-03T16:56:52.859Z,21.10
2018-05-03T16:59:20.447Z,21.10
2018-05-03T17:01:47.805Z,21.10
2018-05-03T17:04:15.227Z,21.10
2018-05-03T17:06:42.707Z,21.10
2018-05-03T17:09:10.574Z,21.10
2018-05-03T17:11:38.440Z,21.10
2018-05-03T17:14:05.959Z,21.10
2018-05-03T17:16:33.376Z,21.10
2018-05-03T17:19:00.832Z,21.10
2018-05-03T17:21:28.267Z,21.00
2018-05-03T17:23:55.768Z,20.90
2018-05-03T17:26:23.216Z,20.80
2018-05-03T17:28:50.762Z,20.70
2018-05-03T17:31:18.546Z,20.50
2018-05-03T17:33:46.487Z,20.50
2018-05-03T17:36:13.867Z,20.40
2018-05-03T17:38:41.433Z,20.30
2018-05-03T17:41:09.215Z,20.10
2018-05-03T17:43:37.179Z,20.00
2018-05-03T17:46:05.061Z,19.90
2018-05-03T17:48:32.799Z,19.70
2018-05-03T17:51:00.727Z,19.60
2018-05-03T17:53:28.137Z,19.50
2018-05-03T17:55:55.824Z,19.30
2018-05-03T17:58:23.504Z,19.30
2018-05-03T18:00:50.941Z,19.20
2018-05-03T18:03:18.508Z,19.10
2018-05-03T18:05:45.934Z,19.00
2018-05-03T18:08:14.141Z,18.80
2018-05-03T18:10:41.825Z,18.70
2018-05-03T18:13:10.320Z,18.60
2018-05-03T18:15:37.800Z,18.50
2018-05-03T18:18:05.522Z,18.40
2018-05-03T18:20:33.123Z,18.30
2018-05-03T18:23:00.650Z,18.20
2018-05-03T18:25:28.083Z,18.10
2018-05-03T18:27:55.777Z,18.00
2018-05-03T18:30:23.220Z,17.90
2018-05-03T18:32:51.057Z,17.80
2018-05-03T18:35:19.204Z,17.70
2018-05-03T18:37:46.652Z,17.60
2018-05-03T18:40:14.104Z,17.60
2018-05-03T18:42:41.889Z,17.60
2018-05-03T18:45:09.761Z,17.50
2018-05-03T18:47:37.631Z,17.50
2018-05-03T18:50:05.100Z,17.40
2018-05-03T18:52:32.877Z,17.40
2018-05-03T18:55:00.885Z,17.40
2018-05-03T18:57:28.547Z,17.30
2018-05-03T18:59:56.011Z,17.20
2018-05-03T19:02:24.948Z,17.00
2018-05-03T19:04:52.565Z,16.90
2018-05-03T19:07:20.015Z,16.90
2018-05-03T19:09:47.457Z,16.80
2018-05-03T19:12:15.001Z,16.80
2018-05-03T19:14:42.510Z,16.70
2018-05-03T19:17:09.974Z,16.70
2018-05-03T19:19:37.420Z,16.60
2018-05-03T19:22:04.969Z,16.60
2018-05-03T19:24:32.447Z,16.60
2018-05-03T19:26:59.885Z,16.50
2018-05-03T19:29:27.772Z,16.50
2018-05-03T19:31:55.440Z,16.50
2018-05-03T19:34:22.891Z,16.40
2018-05-03T19:36:50.632Z,16.40
2018-05-03T19:39:18.188Z,16.30
2018-05-03T19:41:45.815Z,16.30
2018-05-03T19:44:13.381Z,16.20
2018-05-03T19:46:41.176Z,16.20
2018-05-03T19:49:08.890Z,16.20
2018-05-03T19:51:36.647Z,16.10
2018-05-03T19:54:04.096Z,16.10
2018-05-03T19:56:31.541Z,16.10
2018-05-03T19:58:58.986Z,16.00
2018-05-03T20:01:27.206Z,15.90
2018-05-03T20:03:54.690Z,15.80
2018-05-03T20:06:22.153Z,15.80
2018-05-03T20:08:49.624Z,15.80
2018-05-03T20:11:18.908Z,15.60
2018-05-03T20:13:46.572Z,15.60
2018-05-03T20:16:14.174Z,15.60
2018-05-03T20:18:42.490Z,15.60
2018-05-03T20:21:10.269Z,15.50
2018-05-03T20:23:37.724Z,15.40
2018-05-03T20:26:05.335Z,15.40
2018-05-03T20:28:32.771Z,15.40
2018-05-03T20:31:00.250Z,15.30
2018-05-03T20:33:27.693Z,15.20
2018-05-03T20:35:55.148Z,15.20
2018-05-03T20:38:22.655Z,15.20
2018-05-03T20:40:50.152Z,15.20
2018-05-03T20:43:17.614Z,15.10
2018-05-03T20:45:45.416Z,15.10
2018-05-03T20:48:12.874Z,15.10
2018-05-03T20:50:40.312Z,15.10
2018-05-03T20:53:07.759Z,15.00
2018-05-03T20:55:35.342Z,15.00
2018-05-03T20:58:02.777Z,14.90
2018-05-03T21:00:30.238Z,14.90
2018-05-03T21:02:57.661Z,14.90
2018-05-03T21:05:25.101Z,14.80
2018-05-03T21:07:52.559Z,14.80
2018-05-03T21:10:20.044Z,14.80
2018-05-03T21:12:47.492Z,14.70
2018-05-03T21:15:14.919Z,14.70
2018-05-03T21:17:42.363Z,14.70
2018-05-03T21:20:09.805Z,14.60
2018-05-03T21:22:37.348Z,14.60
2018-05-03T21:25:04.796Z,14.60
2018-05-03T21:27:32.266Z,14.60
2018-05-03T21:29:59.711Z,14.60
2018-05-03T21:32:27.158Z,14.50
2018-05-03T21:34:54.658Z,14.50
2018-05-03T21:37:22.116Z,14.50
2018-05-03T21:39:49.552Z,14.50
2018-05-03T21:42:17.001Z,14.40
2018-05-03T21:44:44.517Z,14.40
2018-05-03T21:47:12.357Z,14.40
2018-05-03T21:49:39.850Z,14.40
2018-05-03T21:52:07.287Z,14.30
2018-05-03T21:54:35.038Z,14.30
2018-05-03T21:57:02.466Z,14.20
2018-05-03T21:59:29.908Z,14.20
2018-05-03T22:01:57.552Z,14.20
2018-05-03T22:04:25.071Z,14.10
2018-05-03T22:06:52.829Z,14.20
2018-05-03T22:09:20.340Z,14.10
2018-05-03T22:11:47.792Z,14.10
2018-05-03T22:14:15.243Z,14.00
2018-05-03T22:16:42.724Z,14.00
2018-05-03T22:19:10.192Z,14.00
2018-05-03T22:21:37.655Z,14.00
2018-05-03T22:24:05.100Z,13.90
2018-05-03T22:26:32.556Z,13.90
2018-05-03T22:29:00.032Z,13.90
2018-05-03T22:31:27.476Z,13.90
2018-05-03T22:33:54.938Z,13.90
2018-05-03T22:36:22.412Z,13.80
2018-05-03T22:38:49.868Z,13.80
2018-05-03T22:41:17.298Z,13.80
2018-05-03T22:43:44.734Z,13.70
2018-05-03T22:46:12.183Z,13.70
2018-05-03T22:48:40.129Z,13.70
2018-05-03T22:51:07.563Z,13.70
2018-05-03T22:53:34.996Z,13.60
2018-05-03T22:56:02.433Z,13.60
2018-05-03T22:58:29.963Z,13.60
2018-05-03T23:00:57.395Z,13.60
2018-05-03T23:03:24.848Z,13.50
2018-05-03T23:05:52.291Z,13.50
2018-05-03T23:08:19.727Z,13.50
2018-05-03T23:10:47.180Z,13.50
2018-05-03T23:13:14.743Z,13.50
2018-05-03T23:15:42.197Z,13.40
2018-05-03T23:18:09.671Z,13.40
2018-05-03T23:20:37.107Z,13.40
2018-05-03T23:23:04.569Z,13.30
2018-05-03T23:25:32.059Z,13.30
2018-05-03T23:27:59.507Z,13.30
2018-05-03T23:30:26.983Z,13.30
2018-05-03T23:32:54.441Z,13.20
2018-05-03T23:35:21.891Z,13.20
2018-05-03T23:37:49.343Z,13.20
2018-05-03T23:40:16.893Z,13.10
2018-05-03T23:42:44.335Z,13.10
2018-05-03T23:45:12.135Z,13.10
2018-05-03T23:47:39.625Z,13.00
2018-05-03T23:50:07.067Z,13.00
2018-05-03T23:52:34.523Z,13.00
2018-05-03T23:55:01.959Z,13.00
2018-05-03T23:57:29.396Z,13.00
2018-05-03T23:59:56.844Z,12.90
